createdAt,value
2019-04-20T00:02:12.508Z,10.10
2019-04-20T00:04:36.086Z,10.30
2019-04-20T00:07:06.034Z,9.03
2019-04-20T00:09:36.975Z,9.90
2019-04-20T00:12:12.671Z,9.60
2019-04-20T00:14:37.424Z,8.70
2019-04-20T00:17:05.195Z,10.17
2019-04-20T00:19:40.044Z,10.30
2019-04-20T00:22:15.644Z,8.60
2019-04-20T00:25:01.103Z,9.43
2019-04-20T00:27:42.856Z,9.00
2019-04-20T00:30:15.549Z,9.17
2019-04-20T00:32:42.579Z,8.73
2019-04-20T00:34:56.363Z,10.07
2019-04-20T00:37:25.368Z,8.87
2019-04-20T00:39:56.011Z,8.53
2019-04-20T00:42:33.117Z,9.10
2019-04-20T00:45:00.882Z,9.47
2019-04-20T00:47:37.113Z,9.60
2019-04-20T00:50:05.573Z,9.90
2019-04-20T00:52:35.634Z,8.70
2019-04-20T00:54:54.427Z,8.60
2019-04-20T00:57:34.603Z,8.10
2019-04-20T01:00:12.295Z,8.17
2019-04-20T01:02:36.198Z,7.87
2019-04-20T01:05:11.144Z,7.90
2019-04-20T01:07:49.795Z,7.97
2019-04-20T01:10:15.764Z,7.50
2019-04-20T01:12:45.677Z,7.43
2019-04-20T01:15:24.555Z,7.83
2019-04-20T01:17:44.285Z,7.37
2019-04-20T01:20:12.587Z,6.20
2019-04-20T01:22:48.150Z,6.27
2019-04-20T01:25:18.245Z,5.97
2019-04-20T01:28:02.760Z,6.57
2019-04-20T01:30:20.935Z,7.20
2019-04-20T01:32:57.506Z,6.70
2019-04-20T01:35:31.999Z,7.10
2019-04-20T01:38:02.680Z,5.90
2019-04-20T01:40:13.069Z,6.10
2019-04-20T01:42:42.565Z,6.40
2019-04-20T01:45:17.848Z,6.73
2019-04-20T01:47:47.259Z,6.47
2019-04-20T01:50:16.707Z,5.70
2019-04-20T01:52:56.279Z,6.73
2019-04-20T01:55:40.025Z,5.93
2019-04-20T01:58:14.340Z,5.10
2019-04-20T02:00:38.246Z,5.80
2019-04-20T02:03:08.208Z,6.13
2019-04-20T02:05:38.635Z,5.50
2019-04-20T02:08:12.830Z,6.73
2019-04-20T02:10:44.364Z,5.83
2019-04-20T02:13:07.781Z,5.80
2019-04-20T02:15:42.166Z,5.03
2019-04-20T02:18:17.705Z,5.27
2019-04-20T02:20:59.872Z,5.40
2019-04-20T02:23:23.822Z,5.20
2019-04-20T02:25:39.802Z,5.13
2019-04-20T02:28:27.390Z,5.60
2019-04-20T02:31:15.622Z,5.07
2019-04-20T02:39:19.033Z,5.43
2019-04-20T02:41:27.849Z,5.50
2019-04-20T02:44:06.545Z,5.50
2019-04-20T02:46:22.521Z,5.07
2019-04-20T02:48:55.897Z,5.23
2019-04-20T02:51:23.226Z,5.53
2019-04-20T02:54:06.333Z,5.90
2019-04-20T02:56:29.656Z,5.20
2019-04-20T02:59:03.936Z,5.87
2019-04-20T03:01:20.468Z,5.90
2019-04-20T03:03:39.160Z,5.50
2019-04-20T03:06:17.269Z,5.17
2019-04-20T03:08:58.845Z,4.80
2019-04-20T03:11:29.377Z,4.73
2019-04-20T03:13:56.786Z,4.13
2019-04-20T03:16:20.976Z,5.70
2019-04-20T03:18:51.167Z,5.00
2019-04-20T03:21:27.291Z,5.30
2019-04-20T03:23:59.631Z,4.87
2019-04-20T03:26:29.870Z,4.90
2019-04-20T03:29:01.788Z,4.70
2019-04-20T03:31:54.336Z,4.80
2019-04-20T03:34:41.256Z,4.73
2019-04-20T03:36:42.252Z,4.23
2019-04-20T03:38:57.468Z,4.83
2019-04-20T03:41:24.408Z,4.90
2019-04-20T03:43:45.681Z,4.77
2019-04-20T03:46:18.852Z,5.50
2019-04-20T03:48:59.770Z,6.13
2019-04-20T03:51:39.773Z,4.83
2019-04-20T03:54:15.973Z,4.27
2019-04-20T03:57:13.946Z,4.30
2019-04-20T03:59:41.288Z,5.00
2019-04-20T04:02:29.738Z,4.67
2019-04-20T04:04:59.083Z,4.70
2019-04-20T04:07:25.231Z,4.97
2019-04-20T04:09:59.787Z,5.20
2019-04-20T04:12:45.148Z,4.67
2019-04-20T04:15:12.686Z,4.77
2019-04-20T04:17:44.748Z,5.23
2019-04-20T04:20:14.790Z,4.27
2019-04-20T04:23:02.533Z,4.90
2019-04-20T04:25:25.095Z,5.17
2019-04-20T04:28:02.626Z,4.77
2019-04-20T04:30:28.363Z,4.57
2019-04-20T04:33:20.139Z,5.27
2019-04-20T04:35:23.284Z,5.20
2019-04-20T04:38:02.605Z,4.77
2019-04-20T04:40:40.760Z,4.60
2019-04-20T04:43:05.709Z,4.63
2019-04-20T04:45:17.249Z,4.87
2019-04-20T04:47:43.495Z,5.00
2019-04-20T04:50:17.674Z,5.00
2019-04-20T04:52:53.653Z,5.67
2019-04-20T04:55:24.913Z,5.00
2019-04-20T04:57:43.017Z,5.07
2019-04-20T05:00:17.934Z,5.00
2019-04-20T05:02:49.820Z,4.70
2019-04-20T05:05:35.964Z,5.40
2019-04-20T05:08:01.583Z,4.60
2019-04-20T05:10:18.969Z,4.80
2019-04-20T05:12:48.179Z,4.87
2019-04-20T05:15:32.203Z,5.37
2019-04-20T05:18:09.954Z,4.47
2019-04-20T05:20:41.607Z,4.87
2019-04-20T05:23:12.657Z,4.53
2019-04-20T05:26:01.936Z,5.40
2019-04-20T05:28:24.294Z,4.93
2019-04-20T05:30:52.570Z,4.90
2019-04-20T05:33:27.787Z,4.80
2019-04-20T05:36:08.495Z,5.20
2019-04-20T05:38:42.001Z,5.10
2019-04-20T05:41:07.042Z,4.07
2019-04-20T05:43:45.814Z,5.27
2019-04-20T05:46:17.826Z,4.60
2019-04-20T05:48:50.710Z,4.60
2019-04-20T05:51:21.356Z,5.00
2019-04-20T05:53:46.005Z,5.43
2019-04-20T05:56:17.427Z,4.47
2019-04-20T05:58:53.584Z,4.20
2019-04-20T06:01:20.093Z,4.87
2019-04-20T06:03:45.774Z,5.13
2019-04-20T06:06:15.111Z,5.60
2019-04-20T06:08:53.945Z,5.40
2019-04-20T06:11:23.490Z,5.80
2019-04-20T06:13:48.661Z,6.47
2019-04-20T06:16:33.347Z,5.20
2019-04-20T06:19:14.795Z,5.10
2019-04-20T06:21:36.588Z,5.77
2019-04-20T06:24:15.652Z,5.47
2019-04-20T06:26:57.987Z,4.70
2019-04-20T06:29:09.665Z,6.03
2019-04-20T06:31:58.700Z,5.30
2019-04-20T06:36:53.435Z,4.97
2019-04-20T06:39:24.341Z,5.43
2019-04-20T06:42:07.096Z,5.23
2019-04-20T06:44:27.537Z,4.70
2019-04-20T06:49:29.148Z,4.87
2019-04-20T06:52:18.648Z,5.60
2019-04-20T06:54:53.764Z,5.00
2019-04-20T06:57:25.644Z,5.60
2019-04-20T07:02:29.930Z,5.77
2019-04-20T07:04:57.582Z,5.73
2019-04-20T07:07:27.714Z,5.00
2019-04-20T07:12:24.104Z,5.20
2019-04-20T07:14:48.794Z,5.13
2019-04-20T07:17:39.262Z,5.00
2019-04-20T07:19:56.135Z,5.10
2019-04-20T07:22:33.767Z,5.70
2019-04-20T07:25:02.181Z,5.57
2019-04-20T07:27:29.548Z,6.00
2019-04-20T07:30:06.320Z,5.07
2019-04-20T07:32:32.631Z,4.73
2019-04-20T07:35:03.524Z,5.63
2019-04-20T07:38:07.077Z,4.63
2019-04-20T07:40:11.745Z,4.70
2019-04-20T07:42:40.743Z,5.07
2019-04-20T07:45:18.144Z,5.03
2019-04-20T07:47:40.601Z,5.30
2019-04-20T07:50:04.842Z,5.03
2019-04-20T07:52:31.615Z,4.30
2019-04-20T07:55:26.374Z,5.33
2019-04-20T07:57:34.146Z,5.43
2019-04-20T08:00:05.485Z,5.60
2019-04-20T08:03:03.373Z,5.10
2019-04-20T08:05:36.447Z,5.13
2019-04-20T08:08:12.712Z,4.93
2019-04-20T08:10:46.985Z,6.40
2019-04-20T08:13:18.236Z,4.73
2019-04-20T08:16:04.720Z,5.73
2019-04-20T08:18:16.406Z,4.80
2019-04-20T08:20:46.329Z,5.20
2019-04-20T08:23:18.777Z,5.13
2019-04-20T08:25:36.093Z,5.40
2019-04-20T08:28:13.653Z,4.97
2019-04-20T08:31:02.339Z,4.80
2019-04-20T08:33:47.093Z,5.33
2019-04-20T08:36:14.635Z,6.03
2019-04-20T08:41:09.926Z,5.90
2019-04-20T08:43:48.408Z,5.23
2019-04-20T08:46:17.902Z,4.67
2019-04-20T08:48:46.836Z,5.03
2019-04-20T08:51:16.539Z,5.10
2019-04-20T08:53:43.144Z,5.17
2019-04-20T08:56:08.285Z,5.10
2019-04-20T08:58:25.010Z,4.70
2019-04-20T09:00:58.787Z,4.70
2019-04-20T09:03:44.116Z,5.23
2019-04-20T09:06:09.828Z,6.47
2019-04-20T09:08:44.818Z,5.10
2019-04-20T09:11:41.852Z,5.30
2019-04-20T09:13:54.950Z,5.13
2019-04-20T09:16:26.845Z,5.07
2019-04-20T09:18:58.967Z,5.07
2019-04-20T09:21:31.824Z,4.50
2019-04-20T09:24:14.597Z,4.93
2019-04-20T09:26:59.139Z,4.77
2019-04-20T09:29:05.450Z,5.70
2019-04-20T09:31:44.836Z,5.20
2019-04-20T09:34:15.785Z,5.70
2019-04-20T09:36:46.205Z,5.00
2019-04-20T09:39:35.160Z,5.17
2019-04-20T09:42:01.233Z,5.77
2019-04-20T09:44:31.417Z,5.30
2019-04-20T09:46:59.690Z,5.40
2019-04-20T09:49:41.394Z,6.40
2019-04-20T09:52:11.064Z,4.40
2019-04-20T09:54:48.133Z,5.20
2019-04-20T09:57:13.328Z,5.73
2019-04-20T09:59:44.709Z,5.30
2019-04-20T10:02:06.589Z,5.23
2019-04-20T10:04:26.678Z,5.33
2019-04-20T10:06:55.355Z,5.20
2019-04-20T10:09:30.596Z,5.90
2019-04-20T10:11:55.373Z,5.53
2019-04-20T10:14:24.861Z,5.40
2019-04-20T10:16:53.814Z,5.00
2019-04-20T10:19:26.676Z,5.50
2019-04-20T10:21:52.870Z,4.67
2019-04-20T10:24:21.240Z,5.40
2019-04-20T10:26:50.463Z,5.67
2019-04-20T10:29:19.598Z,4.50
2019-04-20T10:31:54.575Z,4.97
2019-04-20T10:34:20.785Z,5.83
2019-04-20T10:36:49.685Z,5.90
2019-04-20T10:39:20.404Z,5.53
2019-04-20T10:41:53.787Z,5.27
2019-04-20T10:44:19.045Z,5.07
2019-04-20T10:46:49.132Z,5.90
2019-04-20T10:49:17.810Z,5.30
2019-04-20T10:51:47.455Z,5.10
2019-04-20T10:54:16.410Z,5.60
2019-04-20T10:56:45.756Z,5.93
2019-04-20T10:59:14.242Z,5.70
2019-04-20T11:01:43.415Z,5.70
2019-04-20T11:04:12.514Z,5.40
2019-04-20T11:06:40.875Z,6.07
2019-04-20T11:09:10.870Z,6.47
2019-04-20T11:11:40.591Z,5.83
2019-04-20T11:14:16.299Z,6.40
2019-04-20T11:16:40.281Z,6.00
2019-04-20T11:19:09.420Z,5.20
2019-04-20T11:21:38.629Z,6.40
2019-04-20T11:24:08.137Z,6.20
2019-04-20T11:26:38.330Z,7.00
2019-04-20T11:29:06.588Z,7.40
2019-04-20T11:31:40.914Z,6.97
2019-04-20T11:34:05.979Z,6.07
2019-04-20T11:36:34.986Z,6.83
2019-04-20T11:39:05.011Z,6.20
2019-04-20T11:41:36.046Z,6.37
2019-04-20T11:44:05.459Z,6.57
2019-04-20T11:46:34.559Z,6.13
2019-04-20T11:49:03.682Z,6.03
2019-04-20T11:51:32.004Z,5.30
2019-04-20T11:54:00.613Z,6.00
2019-04-20T11:56:35.285Z,6.20
2019-04-20T11:59:00.928Z,5.83
2019-04-20T12:01:38.773Z,6.47
2019-04-20T12:04:16.502Z,6.33
2019-04-20T12:06:32.693Z,5.23
2019-04-20T12:09:01.132Z,5.50
2019-04-20T12:11:39.626Z,5.60
2019-04-20T12:14:00.672Z,6.23
2019-04-20T12:16:29.793Z,6.27
2019-04-20T12:18:58.318Z,5.60
2019-04-20T12:21:26.664Z,6.17
2019-04-20T12:23:56.162Z,6.63
2019-04-20T12:26:25.206Z,5.37
2019-04-20T12:28:55.728Z,6.30
2019-04-20T12:31:27.493Z,5.53
2019-04-20T12:33:54.790Z,6.63
2019-04-20T12:36:23.926Z,5.80
2019-04-20T12:38:53.180Z,5.90
2019-04-20T12:41:32.027Z,6.20
2019-04-20T12:43:51.984Z,6.50
2019-04-20T12:46:22.979Z,6.70
2019-04-20T12:48:51.520Z,6.30
2019-04-20T12:51:19.903Z,6.00
2019-04-20T12:53:48.737Z,5.97
2019-04-20T12:56:17.903Z,6.20
2019-04-20T12:58:47.365Z,6.57
2019-04-20T13:01:18.727Z,6.30
2019-04-20T13:03:46.098Z,6.00
2019-04-20T13:06:14.421Z,5.17
2019-04-20T13:08:48.970Z,5.10
2019-04-20T13:11:24.637Z,5.40
2019-04-20T13:14:04.220Z,6.13
2019-04-20T13:16:38.534Z,7.43
2019-04-20T13:19:07.261Z,6.37
2019-04-20T13:21:36.732Z,8.63
2019-04-20T13:24:05.189Z,6.17
2019-04-20T13:26:35.101Z,6.50
2019-04-20T13:29:04.657Z,6.50
2019-04-20T13:31:33.761Z,6.87
2019-04-20T13:34:03.624Z,8.00
2019-04-20T13:36:32.612Z,8.30
2019-04-20T13:39:01.765Z,6.80
2019-04-20T13:41:31.609Z,5.97
2019-04-20T13:44:02.866Z,6.90
2019-04-20T13:46:31.300Z,6.87
2019-04-20T13:49:00.753Z,7.50
2019-04-20T13:51:30.893Z,8.30
2019-04-20T13:53:59.517Z,8.07
2019-04-20T13:56:28.137Z,8.77
2019-04-20T13:58:58.205Z,7.80
2019-04-20T14:01:30.931Z,8.43
2019-04-20T14:04:05.256Z,7.90
2019-04-20T14:06:33.611Z,8.27
2019-04-20T14:09:03.364Z,10.10
2019-04-20T14:11:31.907Z,8.23
2019-04-20T14:14:03.161Z,8.03
2019-04-20T14:16:31.465Z,7.27
2019-04-20T14:19:00.892Z,7.70
2019-04-20T14:21:30.242Z,8.40
2019-04-20T14:23:59.135Z,8.57
2019-04-20T14:26:27.651Z,8.40
2019-04-20T14:28:56.743Z,9.43
2019-04-20T14:31:25.925Z,8.47
2019-04-20T14:33:55.032Z,8.40
2019-04-20T14:36:24.326Z,8.10
2019-04-20T14:38:54.179Z,8.57
2019-04-20T14:41:22.710Z,7.07
2019-04-20T14:43:51.267Z,9.20
2019-04-20T14:46:20.914Z,8.10
2019-04-20T14:48:49.509Z,8.57
2019-04-20T14:51:17.792Z,8.80
2019-04-20T14:53:47.439Z,7.07
2019-04-20T14:56:16.016Z,8.17
2019-04-20T14:58:49.454Z,6.87
2019-04-20T15:01:28.515Z,7.77
2019-04-20T15:04:04.151Z,7.70
2019-04-20T15:06:27.549Z,8.00
2019-04-20T15:08:56.716Z,7.47
2019-04-20T15:11:25.083Z,7.30
2019-04-20T15:13:53.417Z,8.90
2019-04-20T15:16:22.451Z,7.83
2019-04-20T15:18:59.782Z,10.13
2019-04-20T15:21:31.403Z,8.63
2019-04-20T15:23:59.770Z,8.63
2019-04-20T15:26:28.723Z,8.37
2019-04-20T15:28:57.108Z,8.33
2019-04-20T15:31:26.070Z,8.17
2019-04-20T15:33:54.910Z,8.80
2019-04-20T15:36:24.291Z,9.67
2019-04-20T15:38:53.324Z,8.07
2019-04-20T15:41:22.884Z,8.10
2019-04-20T15:43:51.469Z,7.50
2019-04-20T15:46:21.386Z,8.80
2019-04-20T15:48:50.406Z,7.50
2019-04-20T15:51:19.467Z,8.37
2019-04-20T15:53:49.400Z,7.60
2019-04-20T15:56:18.667Z,6.30
2019-04-20T15:58:48.383Z,7.30
2019-04-20T16:01:18.502Z,6.80
2019-04-20T16:03:48.531Z,7.83
2019-04-20T16:06:17.137Z,7.00
2019-04-20T16:08:48.237Z,7.43
2019-04-20T16:11:17.383Z,7.73
2019-04-20T16:13:49.911Z,7.47
2019-04-20T16:16:16.385Z,7.37
2019-04-20T16:18:46.566Z,7.20
2019-04-20T16:21:20.850Z,7.47
2019-04-20T16:23:48.432Z,7.40
2019-04-20T16:26:21.844Z,9.07
2019-04-20T16:28:50.372Z,7.50
2019-04-20T16:31:20.549Z,7.93
2019-04-20T16:33:50.881Z,8.30
2019-04-20T16:36:20.684Z,9.30
2019-04-20T16:38:51.004Z,8.60
2019-04-20T16:41:20.142Z,9.90
2019-04-20T16:43:50.030Z,9.43
2019-04-20T16:46:22.522Z,9.20
2019-04-20T16:48:49.064Z,9.83
2019-04-20T16:51:18.615Z,10.33
2019-04-20T16:53:47.945Z,9.80
2019-04-20T16:56:19.028Z,9.50
2019-04-20T16:58:49.597Z,9.47
2019-04-20T17:01:17.371Z,8.97
2019-04-20T17:03:54.550Z,8.63
2019-04-20T17:06:15.971Z,9.30
2019-04-20T17:08:46.021Z,9.17
2019-04-20T17:11:15.993Z,8.03
2019-04-20T17:13:49.654Z,7.37
2019-04-20T17:16:15.609Z,9.03
2019-04-20T17:18:47.906Z,9.10
2019-04-20T17:21:22.764Z,9.87
2019-04-20T17:23:47.025Z,8.90
2019-04-20T17:26:17.016Z,8.83
2019-04-20T17:28:55.526Z,9.10
2019-04-20T17:31:43.056Z,9.13
2019-04-20T17:34:31.241Z,9.13
2019-04-20T17:36:42.185Z,10.17
2019-04-20T17:39:14.012Z,9.73
2019-04-20T17:42:00.534Z,9.03
2019-04-20T17:44:30.265Z,9.60
2019-04-20T17:46:52.152Z,9.50
2019-04-20T17:49:26.918Z,9.23
2019-04-20T17:52:07.712Z,9.23
2019-04-20T17:54:16.051Z,10.73
2019-04-20T17:56:44.697Z,9.67
2019-04-20T17:59:14.330Z,9.53
2019-04-20T18:01:56.457Z,10.53
2019-04-20T18:04:49.576Z,9.43
2019-04-20T18:06:57.717Z,9.57
2019-04-20T18:09:40.263Z,10.23
2019-04-20T18:11:52.794Z,9.20
2019-04-20T18:14:37.373Z,9.17
2019-04-20T18:17:08.764Z,10.50
2019-04-20T18:19:27.346Z,9.97
2019-04-20T18:21:54.448Z,10.17
2019-04-20T18:24:42.615Z,10.23
2019-04-20T18:27:18.770Z,10.17
2019-04-20T18:29:40.982Z,10.77
2019-04-20T18:31:55.633Z,12.23
2019-04-20T18:34:31.945Z,12.83
2019-04-20T18:37:05.790Z,13.57
2019-04-20T18:39:39.405Z,14.27
2019-04-20T18:42:09.990Z,12.20
2019-04-20T18:44:54.606Z,13.27
2019-04-20T18:47:23.703Z,12.33
2019-04-20T18:49:43.163Z,13.43
2019-04-20T18:52:01.991Z,11.47
2019-04-20T18:54:37.008Z,12.73
2019-04-20T18:57:01.591Z,13.53
2019-04-20T18:59:39.981Z,13.10
2019-04-20T19:02:01.159Z,12.30
2019-04-20T19:04:31.916Z,12.27
2019-04-20T19:07:00.057Z,11.70
2019-04-20T19:09:30.404Z,12.73
2019-04-20T19:12:02.869Z,14.40
2019-04-20T19:14:40.794Z,13.60
2019-04-20T19:17:20.799Z,14.70
2019-04-20T19:19:50.968Z,15.40
2019-04-20T19:22:17.375Z,16.40
2019-04-20T19:24:47.576Z,14.93
2019-04-20T19:27:17.805Z,16.20
2019-04-20T19:29:58.937Z,15.90
2019-04-20T19:32:30.284Z,16.77
2019-04-20T19:34:59.635Z,15.27
2019-04-20T19:37:26.936Z,15.93
2019-04-20T19:40:02.918Z,16.13
2019-04-20T19:42:33.176Z,15.37
2019-04-20T19:45:01.945Z,16.50
2019-04-20T19:47:38.374Z,15.10
2019-04-20T19:50:19.774Z,15.83
2019-04-20T19:52:49.283Z,16.10
2019-04-20T19:55:10.473Z,16.83
2019-04-20T19:57:43.887Z,18.00
2019-04-20T19:59:56.647Z,16.33
2019-04-20T20:02:25.754Z,15.53
2019-04-20T20:05:00.354Z,17.20
2019-04-20T20:07:31.091Z,16.70
2019-04-20T20:10:00.515Z,17.70
2019-04-20T20:12:25.451Z,17.77
2019-04-20T20:14:59.524Z,19.13
2019-04-20T20:17:52.859Z,18.40
2019-04-20T20:20:25.117Z,16.70
2019-04-20T20:22:36.205Z,18.40
2019-04-20T20:24:58.988Z,18.23
2019-04-20T20:27:35.262Z,18.67
2019-04-20T20:30:07.111Z,19.27
2019-04-20T20:32:49.185Z,19.63
2019-04-20T20:35:05.544Z,20.63
2019-04-20T20:37:37.648Z,20.87
2019-04-20T20:40:15.200Z,19.97
2019-04-20T20:42:47.285Z,21.47
2019-04-20T20:45:14.881Z,21.40
2019-04-20T20:47:49.354Z,22.70
2019-04-20T20:50:21.238Z,21.47
2019-04-20T20:52:46.945Z,23.17
2019-04-20T20:55:06.947Z,22.83
2019-04-20T20:57:40.946Z,24.87
2019-04-20T21:00:07.679Z,24.90
2019-04-20T21:02:44.048Z,25.97
2019-04-20T21:05:01.734Z,25.77
2019-04-20T21:07:30.944Z,26.20
2019-04-20T21:10:00.714Z,27.37
2019-04-20T21:12:30.481Z,26.43
2019-04-20T21:15:06.624Z,29.57
2019-04-20T21:17:40.960Z,28.50
2019-04-20T21:20:18.254Z,30.93
2019-04-20T21:22:51.719Z,31.50
2019-04-20T21:25:05.225Z,31.70
2019-04-20T21:27:34.934Z,31.50
2019-04-20T21:30:05.490Z,31.70
2019-04-20T21:32:40.768Z,33.57
2019-04-20T21:35:07.235Z,35.10
2019-04-20T21:37:34.826Z,35.03
2019-04-20T21:40:16.734Z,34.70
2019-04-20T21:42:45.486Z,34.93
2019-04-20T21:45:14.834Z,34.47
2019-04-20T21:47:40.831Z,35.37
2019-04-20T21:50:24.466Z,37.30
2019-04-20T21:52:45.117Z,38.57
2019-04-20T21:55:09.938Z,36.27
2019-04-20T21:57:43.371Z,36.00
2019-04-20T22:00:23.765Z,38.37
2019-04-20T22:02:46.761Z,36.87
2019-04-20T22:05:11.487Z,38.67
2019-04-20T22:07:40.787Z,38.83
2019-04-20T22:10:11.650Z,36.50
2019-04-20T22:12:47.623Z,36.50
2019-04-20T22:15:18.452Z,39.63
2019-04-20T22:17:41.569Z,38.00
2019-04-20T22:20:20.202Z,38.67
2019-04-20T22:22:57.136Z,39.67
2019-04-20T22:25:28.227Z,39.20
2019-04-20T22:27:42.154Z,44.20
2019-04-20T22:30:10.557Z,44.00
2019-04-20T22:32:44.365Z,44.20
2019-04-20T22:35:13.968Z,45.77
2019-04-20T22:37:59.803Z,48.00
2019-04-20T22:40:28.022Z,46.37
2019-04-20T22:42:57.809Z,49.37
2019-04-20T22:45:23.401Z,48.27
2019-04-20T22:48:00.344Z,49.50
2019-04-20T22:50:38.318Z,51.20
2019-04-20T22:53:05.016Z,49.30
2019-04-20T22:55:51.409Z,51.47
2019-04-20T22:58:01.317Z,53.57
2019-04-20T23:00:36.502Z,55.67
2019-04-20T23:02:52.823Z,54.60
2019-04-20T23:05:21.108Z,60.53
2019-04-20T23:07:50.592Z,57.43
2019-04-20T23:10:30.447Z,60.37
2019-04-20T23:12:53.300Z,61.30
2019-04-20T23:15:20.424Z,61.90
2019-04-20T23:17:51.802Z,63.60
2019-04-20T23:20:25.238Z,66.50
2019-04-20T23:22:51.264Z,68.00
2019-04-20T23:25:19.109Z,64.80
2019-04-20T23:27:52.371Z,64.00
2019-04-20T23:30:23.147Z,67.67
2019-04-20T23:32:49.775Z,67.80
2019-04-20T23:35:21.211Z,68.73
2019-04-20T23:37:48.560Z,65.83
2019-04-20T23:40:17.123Z,67.13
2019-04-20T23:42:55.871Z,66.00
2019-04-20T23:45:31.426Z,65.67
2019-04-20T23:48:01.398Z,66.47
2019-04-20T23:50:48.972Z,66.40
2019-04-20T23:53:14.196Z,69.27
2019-04-20T23:55:27.799Z,66.90
2019-04-20T23:58:01.311Z,69.03
